Time;durP1;ratioP1;P1;durP2;ratioP2;P2;SDS_P1;SDS_P2;PMS_P1;PMS_P2;Temp;Humidity;BMP_temperature;BMP_pressure;BME280_temperature;BME280_humidity;BME280_pressure;Samples;Min_cycle;Max_cycle;Signal;HPM_P1;HPM_P2
2022/02/23 00:01:34;;;;;;;24.13;3.80;;;;;;;10.60;100.00;98112.53;5008523;28;20153;-61
2022/02/23 00:04:00;;;;;;;23.05;3.58;;;;;;;12.24;100.00;98120.44;5006759;28;20037;-60
2022/02/23 00:06:26;;;;;;;25.58;3.80;;;;;;;11.35;100.00;98119.94;5009145;28;20060;-63
2022/02/23 00:08:51;;;;;;;24.52;3.60;;;;;;;10.46;100.00;98123.53;5007420;28;20042;-61
2022/02/23 00:11:16;;;;;;;22.52;3.50;;;;;;;10.84;100.00;98123.78;5008672;28;20561;-61
2022/02/23 00:13:43;;;;;;;19.83;3.42;;;;;;;9.94;100.00;98130.66;5007807;28;20156;-58
2022/02/23 00:16:08;;;;;;;28.42;4.18;;;;;;;10.72;100.00;98129.50;5008017;28;20238;-59
2022/02/23 00:18:34;;;;;;;24.33;3.95;;;;;;;9.82;100.00;98127.59;5007598;28;20037;-57
2022/02/23 00:20:59;;;;;;;22.35;3.53;;;;;;;12.19;100.00;98122.41;5006367;28;20133;-58
2022/02/23 00:23:25;;;;;;;26.63;4.28;;;;;;;10.56;100.00;98121.41;5007190;28;20032;-58
2022/02/23 00:25:50;;;;;;;22.20;3.85;;;;;;;9.82;100.00;98122.38;5007062;28;20144;-59
2022/02/23 00:28:16;;;;;;;24.17;3.85;;;;;;;10.14;100.00;98130.75;5009502;28;20056;-59
2022/02/23 00:30:41;;;;;;;28.52;4.25;;;;;;;11.48;100.00;98145.53;5007714;28;20446;-61
2022/02/23 00:33:07;;;;;;;27.17;3.83;;;;;;;12.17;100.00;98139.94;5008475;28;20427;-60
2022/02/23 00:35:33;;;;;;;26.73;4.00;;;;;;;11.02;100.00;98140.44;5007210;28;20400;-58
2022/02/23 00:37:58;;;;;;;24.42;3.90;;;;;;;11.39;100.00;98138.94;5009239;28;20022;-58
2022/02/23 00:40:24;;;;;;;23.75;3.30;;;;;;;11.82;100.00;98149.31;5008177;28;20666;-60
2022/02/23 00:42:52;;;;;;;29.63;4.25;;;;;;;10.48;100.00;98155.63;5006230;28;20131;-58
2022/02/23 00:45:18;;;;;;;23.98;3.47;;;;;;;11.48;100.00;98161.22;5006395;28;20025;-60
2022/02/23 00:47:43;;;;;;;30.08;4.05;;;;;;;11.12;100.00;98164.41;5006982;28;20049;-59
2022/02/23 00:50:09;;;;;;;27.23;4.10;;;;;;;10.64;100.00;98162.84;5006929;28;20028;-59
2022/02/23 00:52:34;;;;;;;32.72;4.75;;;;;;;11.18;100.00;98179.84;5008342;28;20071;-60
2022/02/23 00:54:59;;;;;;;30.90;3.88;;;;;;;12.61;100.00;98206.81;5006641;28;20151;-58
2022/02/23 00:57:25;;;;;;;30.92;4.00;;;;;;;10.17;100.00;98206.25;5005908;28;20042;-60
2022/02/23 00:59:51;;;;;;;37.88;5.10;;;;;;;10.50;100.00;98211.16;5007459;28;20022;-59
2022/02/23 01:02:16;;;;;;;28.65;4.13;;;;;;;10.08;100.00;98221.38;5008121;28;20420;-59
2022/02/23 01:04:41;;;;;;;56.60;5.70;;;;;;;10.79;100.00;98245.75;5005495;28;20028;-59
2022/02/23 01:07:07;;;;;;;35.65;4.35;;;;;;;11.30;100.00;98235.94;5009108;28;20091;-61
2022/02/23 01:09:32;;;;;;;21.50;3.80;;;;;;;10.02;100.00;98230.25;5009469;28;20033;-59
2022/02/23 01:11:57;;;;;;;20.88;3.88;;;;;;;10.59;100.00;98236.91;5006470;28;20033;-60
2022/02/23 01:14:23;;;;;;;24.15;4.28;;;;;;;10.01;100.00;98241.59;5007345;28;20072;-61
2022/02/23 01:16:48;;;;;;;18.23;3.33;;;;;;;10.76;100.00;98236.25;5006074;28;20048;-59
2022/02/23 01:19:14;;;;;;;21.85;3.83;;;;;;;10.56;100.00;98237.00;5009030;28;20091;-58
2022/02/23 01:21:39;;;;;;;20.77;3.70;;;;;;;9.93;100.00;98233.19;5006357;28;20094;-60
2022/02/23 01:24:05;;;;;;;18.92;3.33;;;;;;;13.09;100.00;98234.28;5005148;28;20476;-61
2022/02/23 01:26:31;;;;;;;18.13;3.33;;;;;;;10.50;100.00;98239.84;5006195;28;20045;-58
2022/02/23 01:28:57;;;;;;;21.02;3.40;;;;;;;12.39;100.00;98249.69;5007682;28;20032;-61
2022/02/23 01:31:22;;;;;;;21.73;3.97;;;;;;;10.32;100.00;98256.19;5004196;28;20438;-59
2022/02/23 01:33:47;;;;;;;24.55;3.78;;;;;;;10.97;100.00;98260.72;5005856;28;20032;-59
2022/02/23 01:36:13;;;;;;;21.70;3.30;;;;;;;11.58;100.00;98267.03;4990219;28;20049;-59
2022/02/23 01:38:39;;;;;;;20.63;3.50;;;;;;;10.79;100.00;98267.47;5004221;28;20532;-61
2022/02/23 01:41:06;;;;;;;19.73;3.38;;;;;;;11.10;100.00;98261.09;5005961;28;20040;-60
2022/02/23 01:43:31;;;;;;;22.83;3.47;;;;;;;9.72;100.00;98271.22;5004414;28;20119;-58
2022/02/23 01:45:56;;;;;;;25.20;3.70;;;;;;;10.53;100.00;98281.50;5006392;28;20053;-61
2022/02/23 01:48:22;;;;;;;20.95;3.28;;;;;;;9.94;100.00;98277.41;5005488;28;20048;-58
2022/02/23 01:50:47;;;;;;;17.63;3.10;;;;;;;10.23;100.00;98279.00;5006604;28;20036;-58
2022/02/23 01:53:14;;;;;;;24.02;3.53;;;;;;;10.71;100.00;98292.13;5008226;28;20103;-60
2022/02/23 01:55:39;;;;;;;23.50;3.60;;;;;;;9.10;100.00;98293.16;5006299;28;20167;-60
2022/02/23 01:58:05;;;;;;;21.88;3.30;;;;;;;10.55;100.00;98304.88;5005501;28;20052;-60
2022/02/23 02:00:30;;;;;;;18.48;3.08;;;;;;;9.82;100.00;98316.94;5005568;28;20042;-58
2022/02/23 02:02:56;;;;;;;17.88;2.97;;;;;;;10.05;100.00;98308.31;5007423;28;20515;-58
2022/02/23 02:05:21;;;;;;;25.08;3.65;;;;;;;10.47;100.00;98318.19;5001491;28;20033;-60
2022/02/23 02:07:46;;;;;;;20.25;3.33;;;;;;;9.51;100.00;98319.66;5007822;28;20228;-58
2022/02/23 02:10:12;;;;;;;18.42;2.97;;;;;;;9.38;100.00;98327.00;5005703;28;20029;-57
2022/02/23 02:12:38;;;;;;;21.85;3.47;;;;;;;9.15;100.00;98335.50;5006503;28;20036;-60
2022/02/23 02:15:05;;;;;;;24.85;3.63;;;;;;;9.36;100.00;98336.63;5002275;28;20084;-59
2022/02/23 02:17:30;;;;;;;21.38;3.30;;;;;;;9.07;100.00;98336.56;5010623;28;20033;-61
2022/02/23 02:19:56;;;;;;;27.02;3.65;;;;;;;9.26;100.00;98341.22;5010535;28;20445;-58
2022/02/23 02:22:21;;;;;;;26.80;3.92;;;;;;;9.33;100.00;98342.75;5008390;28;20772;-58
2022/02/23 02:24:47;;;;;;;24.52;3.65;;;;;;;10.42;100.00;98351.41;5009211;28;20574;-58
2022/02/23 02:27:14;;;;;;;26.33;3.80;;;;;;;10.10;100.00;98345.50;5009229;28;20038;-59
2022/02/23 02:29:41;;;;;;;22.52;3.42;;;;;;;8.85;100.00;98359.75;5008862;28;20097;-59
2022/02/23 02:32:07;;;;;;;21.55;3.33;;;;;;;9.10;100.00;98360.81;5009634;28;20030;-60
2022/02/23 02:34:33;;;;;;;24.50;3.50;;;;;;;9.14;100.00;98372.84;5011304;28;20480;-61
2022/02/23 02:36:58;;;;;;;29.63;4.13;;;;;;;9.33;100.00;98379.19;5007815;28;20037;-61
2022/02/23 02:39:25;;;;;;;23.08;3.63;;;;;;;9.05;100.00;98385.22;5010478;28;20063;-59
2022/02/23 02:41:51;;;;;;;24.83;3.33;;;;;;;9.15;100.00;98397.97;5009260;28;20049;-60
2022/02/23 02:44:17;;;;;;;24.55;3.60;;;;;;;8.85;100.00;98396.19;5009847;28;20104;-58
2022/02/23 02:46:43;;;;;;;46.28;3.72;;;;;;;8.78;100.00;98412.84;5007482;28;20044;-60
2022/02/23 02:49:09;;;;;;;25.48;3.60;;;;;;;8.45;100.00;98412.88;5010551;28;20014;-60
2022/02/23 02:51:36;;;;;;;28.95;3.97;;;;;;;8.49;100.00;98409.28;5007602;28;20042;-60
2022/02/23 02:54:03;;;;;;;24.65;3.45;;;;;;;8.57;100.00;98426.44;5011885;28;20034;-59
2022/02/23 02:56:29;;;;;;;25.20;3.47;;;;;;;8.83;100.00;98436.16;5009167;28;20141;-61
2022/02/23 02:58:54;;;;;;;22.60;3.33;;;;;;;8.91;100.00;98436.78;5009354;28;20033;-58
2022/02/23 03:01:25;;;;;;;23.67;3.40;;;;;;;8.74;100.00;98437.25;5011045;28;20069;-59
2022/02/23 03:03:50;;;;;;;30.90;4.05;;;;;;;8.40;100.00;98447.63;5010005;28;20017;-60
2022/02/23 03:06:17;;;;;;;21.85;2.90;;;;;;;8.22;100.00;98449.78;5007630;28;20084;-59
2022/02/23 03:08:43;;;;;;;23.23;3.65;;;;;;;8.92;100.00;98453.25;5007647;28;20022;-60
2022/02/23 03:11:08;;;;;;;24.38;3.72;;;;;;;8.46;100.00;98453.56;5009716;28;20033;-60
2022/02/23 03:13:34;;;;;;;25.58;3.85;;;;;;;8.16;100.00;98452.56;5008347;28;20035;-58
2022/02/23 03:16:00;;;;;;;25.48;3.72;;;;;;;9.26;100.00;98456.63;5006473;28;20524;-59
2022/02/23 03:18:25;;;;;;;32.65;4.07;;;;;;;8.55;100.00;98469.84;5007232;28;20583;-60
2022/02/23 03:20:51;;;;;;;32.33;4.38;;;;;;;8.67;100.00;98478.19;5007921;28;20030;-61
2022/02/23 03:23:17;;;;;;;21.67;3.20;;;;;;;9.89;100.00;98493.00;5007477;28;20115;-59
2022/02/23 03:25:43;;;;;;;30.50;3.85;;;;;;;9.12;100.00;98499.56;5007752;28;20054;-59
2022/02/23 03:28:09;;;;;;;27.70;3.97;;;;;;;8.59;100.00;98506.09;5010219;28;20131;-60
2022/02/23 03:30:34;;;;;;;28.95;4.05;;;;;;;9.15;100.00;98517.69;5008264;28;20085;-59
2022/02/23 03:32:59;;;;;;;31.83;4.03;;;;;;;9.05;100.00;98515.31;5008650;28;20022;-59
2022/02/23 03:35:27;;;;;;;25.52;3.65;;;;;;;8.62;100.00;98520.75;5007758;28;20042;-59
2022/02/23 03:37:56;;;;;;;26.45;3.65;;;;;;;11.14;100.00;98525.50;5008668;28;20033;-60
2022/02/23 03:40:22;;;;;;;29.85;4.07;;;;;;;10.08;100.00;98519.34;5008716;28;20103;-60
2022/02/23 03:42:48;;;;;;;27.90;3.95;;;;;;;9.24;100.00;98525.25;5007599;28;20014;-59
2022/02/23 03:45:14;;;;;;;27.08;3.58;;;;;;;9.98;100.00;98530.94;5008650;28;20022;-61
2022/02/23 03:47:39;;;;;;;27.08;3.67;;;;;;;9.35;100.00;98537.97;5006995;28;20014;-61
2022/02/23 03:50:05;;;;;;;32.17;4.03;;;;;;;8.88;100.00;98535.75;5009552;28;20733;-60
2022/02/23 03:52:30;;;;;;;38.17;4.63;;;;;;;8.79;100.00;98546.38;5008676;28;20136;-58
2022/02/23 03:54:56;;;;;;;46.53;4.90;;;;;;;9.03;100.00;98547.50;5007351;28;20036;-61
2022/02/23 03:57:21;;;;;;;34.25;4.00;;;;;;;8.90;100.00;98552.16;5008951;28;20045;-60
2022/02/23 03:59:46;;;;;;;30.40;4.10;;;;;;;9.03;100.00;98556.16;5007640;28;20439;-59
2022/02/23 04:02:12;;;;;;;30.30;4.03;;;;;;;8.33;100.00;98560.44;5008120;28;20116;-59
2022/02/23 04:04:37;;;;;;;30.52;4.20;;;;;;;8.62;100.00;98563.25;5007937;28;20183;-61
2022/02/23 04:07:03;;;;;;;21.52;3.60;;;;;;;8.36;100.00;98570.75;5008895;28;20632;-60
2022/02/23 04:09:28;;;;;;;25.02;3.55;;;;;;;8.76;100.00;98573.31;5009338;28;20045;-61
2022/02/23 04:11:53;;;;;;;25.15;3.47;;;;;;;9.17;100.00;98570.53;5006583;28;20048;-60
2022/02/23 04:14:19;;;;;;;31.60;4.28;;;;;;;8.63;100.00;98575.34;5008466;28;20116;-59
2022/02/23 04:16:44;;;;;;;27.60;3.78;;;;;;;10.16;100.00;98587.75;5007326;28;20048;-59
2022/02/23 04:19:09;;;;;;;22.90;3.35;;;;;;;9.74;100.00;98593.31;5007288;28;20024;-60
2022/02/23 04:21:35;;;;;;;27.75;3.67;;;;;;;8.93;100.00;98587.63;5008163;28;20045;-59
2022/02/23 04:24:00;;;;;;;28.08;4.05;;;;;;;9.53;100.00;98593.91;5006663;28;20082;-59
2022/02/23 04:26:26;;;;;;;22.77;3.45;;;;;;;9.62;100.00;98604.91;5007033;28;20127;-60
2022/02/23 04:28:51;;;;;;;23.60;3.83;;;;;;;10.15;100.00;98603.44;5007203;28;20567;-60
2022/02/23 04:31:17;;;;;;;30.33;4.13;;;;;;;8.59;100.00;98607.53;5004875;28;20116;-61
2022/02/23 04:33:42;;;;;;;25.85;3.95;;;;;;;8.40;100.00;98603.59;5007588;28;20026;-60
2022/02/23 04:36:10;;;;;;;29.73;4.20;;;;;;;7.73;100.00;98611.94;5009304;28;20044;-58
2022/02/23 04:38:37;;;;;;;25.42;3.58;;;;;;;7.95;100.00;98622.75;5005744;28;20021;-60
2022/02/23 04:41:03;;;;;;;30.20;4.25;;;;;;;7.88;100.00;98618.56;5005802;28;20045;-59
2022/02/23 04:43:33;;;;;;;25.60;3.65;;;;;;;8.77;100.00;98629.66;5008699;28;20124;-59
2022/02/23 04:45:59;;;;;;;23.42;3.28;;;;;;;8.06;100.00;98625.13;5006164;28;20095;-60
2022/02/23 04:48:24;;;;;;;36.22;4.90;;;;;;;8.02;100.00;98629.53;5007680;28;20026;-59
2022/02/23 04:50:50;;;;;;;28.52;3.67;;;;;;;8.62;100.00;98646.47;5009004;28;20550;-59
2022/02/23 04:53:15;;;;;;;34.30;4.70;;;;;;;7.26;100.00;98645.69;5007813;28;20574;-58
2022/02/23 04:55:40;;;;;;;27.80;3.92;;;;;;;7.31;100.00;98645.59;5007470;28;20049;-59
2022/02/23 04:58:07;;;;;;;31.52;4.00;;;;;;;7.32;100.00;98649.91;5007772;28;20443;-59
2022/02/23 05:00:37;;;;;;;34.35;4.55;;;;;;;6.88;100.00;98656.69;5007133;28;20135;-58
2022/02/23 05:03:03;;;;;;;28.33;3.92;;;;;;;6.73;100.00;98655.19;5007573;28;20069;-58
2022/02/23 05:05:29;;;;;;;40.58;5.07;;;;;;;6.53;100.00;98663.25;5005283;28;20080;-59
2022/02/23 05:07:54;;;;;;;35.67;4.70;;;;;;;6.20;100.00;98669.75;5005417;28;20132;-60
2022/02/23 05:10:20;;;;;;;37.75;4.50;;;;;;;6.04;100.00;98682.88;5005582;28;20026;-59
2022/02/23 05:12:45;;;;;;;36.95;4.70;;;;;;;6.18;100.00;98687.88;5007551;28;20026;-58
2022/02/23 05:15:10;;;;;;;33.50;4.28;;;;;;;6.08;100.00;98688.88;5006726;28;20152;-59
2022/02/23 05:17:36;;;;;;;37.25;4.57;;;;;;;5.86;100.00;98698.56;5005918;28;20025;-60
2022/02/23 05:20:04;;;;;;;41.08;5.10;;;;;;;5.72;100.00;98702.16;5003905;28;20038;-59
2022/02/23 05:22:29;;;;;;;33.53;4.53;;;;;;;6.03;100.00;98703.59;5006137;28;20034;-58
2022/02/23 05:24:55;;;;;;;50.03;5.25;;;;;;;6.10;100.00;98702.66;5005925;28;20033;-61
2022/02/23 05:27:20;;;;;;;33.70;4.07;;;;;;;6.14;100.00;98706.94;4998496;28;20056;-58
2022/02/23 05:29:45;;;;;;;33.78;4.78;;;;;;;6.07;100.00;98715.66;5006858;28;20603;-58
2022/02/23 05:32:11;;;;;;;35.95;4.38;;;;;;;6.48;100.00;98714.28;5005466;28;20835;-59
2022/02/23 05:34:36;;;;;;;30.85;3.83;;;;;;;6.71;100.00;98717.44;5006239;28;20820;-60
2022/02/23 05:37:02;;;;;;;40.10;4.63;;;;;;;6.47;100.00;98723.81;5004101;28;20033;-58
2022/02/23 05:39:27;;;;;;;37.03;4.40;;;;;;;6.66;100.00;98733.94;5007418;28;20025;-60
2022/02/23 05:41:53;;;;;;;34.22;4.65;;;;;;;6.18;100.00;98732.78;5007135;28;20034;-58
2022/02/23 05:44:18;;;;;;;35.97;4.38;;;;;;;7.09;100.00;98736.75;5006446;28;20025;-60
2022/02/23 05:46:43;;;;;;;32.08;3.92;;;;;;;7.24;100.00;98747.78;5006755;28;20311;-59
2022/02/23 05:49:09;;;;;;;32.83;4.00;;;;;;;6.73;100.00;98751.13;5006048;28;20026;-60
2022/02/23 05:51:37;;;;;;;37.28;4.22;;;;;;;9.05;100.00;98753.88;5005924;28;20124;-60
2022/02/23 05:54:04;;;;;;;36.88;4.40;;;;;;;7.44;100.00;98750.06;5008665;28;20029;-59
2022/02/23 05:56:30;;;;;;;39.75;4.90;;;;;;;7.28;100.00;98759.84;5005876;28;20042;-58
2022/02/23 05:58:56;;;;;;;34.95;4.18;;;;;;;7.69;100.00;98776.47;5007020;28;20030;-59
2022/02/23 06:01:22;;;;;;;48.25;5.13;;;;;;;7.94;100.00;98781.22;5005460;28;20033;-59
2022/02/23 06:03:47;;;;;;;21.50;3.38;;;;;;;8.19;100.00;98789.44;5007529;28;20075;-59
2022/02/23 06:06:13;;;;;;;20.05;2.80;;;;;;;10.13;100.00;98804.22;5009029;28;20053;-59
2022/02/23 06:08:39;;;;;;;26.42;3.13;;;;;;;9.26;100.00;98794.19;5009550;28;20065;-59
2022/02/23 06:11:05;;;;;;;33.80;3.95;;;;;;;9.75;100.00;98803.44;5008401;28;20487;-58
2022/02/23 06:13:31;;;;;;;32.97;4.65;;;;;;;9.59;100.00;98799.47;5009830;28;20033;-59
2022/02/23 06:15:56;;;;;;;36.47;4.32;;;;;;;7.79;100.00;98809.19;5008932;28;20030;-61
2022/02/23 06:18:22;;;;;;;26.80;3.47;;;;;;;7.97;100.00;98807.16;5009546;28;20064;-60
2022/02/23 06:20:47;;;;;;;37.38;3.83;;;;;;;8.68;100.00;98817.97;5007724;28;20033;-60
2022/02/23 06:23:13;;;;;;;38.10;4.00;;;;;;;8.86;100.00;98821.09;5010024;28;20033;-59
2022/02/23 06:25:38;;;;;;;43.95;4.47;;;;;;;9.15;100.00;98828.25;5009297;28;20073;-59
2022/02/23 06:28:04;;;;;;;35.55;4.18;;;;;;;10.78;100.00;98834.63;5009600;28;20090;-60
2022/02/23 06:30:29;;;;;;;22.08;3.47;;;;;;;10.38;100.00;98834.88;5010343;28;20436;-61
2022/02/23 06:32:54;;;;;;;28.30;4.65;;;;;;;10.47;100.00;98841.59;5009587;28;20127;-60
2022/02/23 06:35:20;;;;;;;27.92;4.43;;;;;;;6.77;100.00;98835.75;5010608;28;20117;-60
2022/02/23 06:37:46;;;;;;;33.45;4.78;;;;;;;7.00;100.00;98844.97;5010969;28;20032;-59
2022/02/23 06:40:12;;;;;;;31.23;4.93;;;;;;;6.55;100.00;98845.53;5009706;28;20177;-61
2022/02/23 06:42:38;;;;;;;39.42;5.10;;;;;;;6.28;100.00;98842.34;5008756;28;20022;-58
2022/02/23 06:45:05;;;;;;;40.17;5.53;;;;;;;6.10;100.00;98847.69;5007871;28;20053;-60
2022/02/23 06:47:31;;;;;;;33.95;5.18;;;;;;;5.93;100.00;98855.59;5009831;28;20018;-59
2022/02/23 06:49:56;;;;;;;32.45;5.00;;;;;;;5.96;100.00;98856.47;5008956;28;20025;-60
2022/02/23 06:52:22;;;;;;;39.47;5.53;;;;;;;6.23;100.00;98854.50;5008250;28;20061;-61
2022/02/23 06:54:48;;;;;;;47.53;6.03;;;;;;;6.58;100.00;98858.47;5006811;28;20683;-61
2022/02/23 06:57:14;;;;;;;35.55;5.18;;;;;;;6.63;100.00;98858.38;5006303;28;20046;-60
2022/02/23 06:59:40;;;;;;;46.97;5.93;;;;;;;7.23;100.00;98865.44;5011054;28;20056;-60
2022/02/23 07:02:09;;;;;;;45.42;6.03;;;;;;;7.78;100.00;98869.81;5010296;28;20058;-60
2022/02/23 07:04:35;;;;;;;35.22;4.75;;;;;;;7.00;100.00;98868.31;5011060;28;20554;-59
2022/02/23 07:07:00;;;;;;;40.38;5.47;;;;;;;6.80;100.00;98872.03;5013562;28;20048;-60
2022/02/23 07:09:26;;;;;;;40.88;5.80;;;;;;;6.90;100.00;98877.97;5012225;28;20025;-60
2022/02/23 07:11:52;;;;;;;46.65;6.15;;;;;;;7.56;100.00;98878.81;5011698;28;20483;-59
2022/02/23 07:14:19;;;;;;;48.20;6.18;;;;;;;7.30;100.00;98882.66;5009963;28;20136;-61
2022/02/23 07:16:44;;;;;;;49.72;6.05;;;;;;;7.05;100.00;98882.09;5012861;28;20065;-58
2022/02/23 07:19:10;;;;;;;48.22;5.70;;;;;;;7.67;100.00;98887.31;5010615;28;20037;-59
2022/02/23 07:21:35;;;;;;;50.20;7.28;;;;;;;7.35;100.00;98891.19;5008789;28;20048;-60
2022/02/23 07:24:01;;;;;;;65.53;7.10;;;;;;;7.62;100.00;98900.34;5012094;28;20029;-59
2022/02/23 07:26:27;;;;;;;34.50;5.60;;;;;;;7.31;100.00;98913.75;5012891;28;20049;-60
2022/02/23 07:28:52;;;;;;;38.70;5.55;;;;;;;7.47;100.00;98917.00;5009751;28;20030;-59
2022/02/23 07:31:18;;;;;;;36.92;5.57;;;;;;;7.74;100.00;98920.09;5012876;28;20034;-59
2022/02/23 07:33:45;;;;;;;30.40;5.35;;;;;;;8.32;100.00;98922.63;5014338;28;20789;-59
2022/02/23 07:36:11;;;;;;;38.20;5.65;;;;;;;8.82;100.00;98929.56;5013457;28;20447;-59
2022/02/23 07:38:38;;;;;;;42.55;5.78;;;;;;;11.45;100.00;98926.69;5012730;28;20483;-61
2022/02/23 07:41:04;;;;;;;34.60;5.20;;;;;;;11.60;100.00;98930.59;5013166;28;20029;-61
2022/02/23 07:43:30;;;;;;;37.70;5.18;;;;;;;13.26;100.00;98933.78;5011071;28;20080;-60
2022/02/23 07:45:58;;;;;;;44.70;5.82;;;;;;;13.89;100.00;98938.41;5008854;28;20034;-61
2022/02/23 07:48:23;;;;;;;44.17;5.15;;;;;;;12.77;100.00;98932.06;5009807;28;20026;-60
2022/02/23 07:50:49;;;;;;;34.85;4.78;;;;;;;14.64;100.00;98935.34;5011564;28;20065;-60
2022/02/23 07:53:14;;;;;;;43.42;5.75;;;;;;;14.73;100.00;98931.50;5011478;28;20124;-63
2022/02/23 07:55:41;;;;;;;43.72;5.65;;;;;;;13.40;100.00;98935.06;5010644;28;20037;-61
2022/02/23 07:58:07;;;;;;;42.40;5.50;;;;;;;13.68;100.00;98938.34;5011742;28;20049;-61
2022/02/23 08:00:32;;;;;;;41.20;5.28;;;;;;;15.75;97.50;98943.59;5010670;28;20087;-60
2022/02/23 08:02:58;;;;;;;39.22;5.45;;;;;;;15.54;88.05;98940.13;5010810;28;20022;-62
2022/02/23 08:05:24;;;;;;;33.67;4.93;;;;;;;15.87;83.84;98944.78;5010500;28;20765;-61
2022/02/23 08:07:55;;;;;;;35.10;5.13;;;;;;;15.57;78.95;98940.00;5011161;28;20018;-60
2022/02/23 08:10:21;;;;;;;40.10;5.47;;;;;;;16.00;79.85;98953.78;5010571;28;20030;-62
2022/02/23 08:12:47;;;;;;;30.85;4.78;;;;;;;16.99;76.63;98943.66;5011682;28;20091;-61
2022/02/23 08:20:41;;;;;;;35.45;5.15;;;;;;;17.48;70.20;98948.94;5011808;28;20048;-61
2022/02/23 08:23:07;;;;;;;36.78;5.40;;;;;;;15.21;82.80;98959.16;5011087;28;20033;-61
2022/02/23 08:25:33;;;;;;;36.28;5.38;;;;;;;13.18;99.59;98958.53;5010116;28;20049;-63
2022/02/23 08:27:58;;;;;;;39.10;5.53;;;;;;;13.79;99.18;98958.06;5010752;28;20084;-63
2022/02/23 08:30:24;;;;;;;37.55;5.38;;;;;;;12.73;100.00;98960.13;5010225;28;20478;-60
2022/02/23 08:32:50;;;;;;;40.15;5.35;;;;;;;12.86;100.00;98966.63;5009874;28;20072;-60
2022/02/23 08:35:15;;;;;;;48.20;5.97;;;;;;;12.40;100.00;98973.44;5007882;28;20037;-62
2022/02/23 08:37:40;;;;;;;47.22;6.25;;;;;;;11.98;100.00;98981.75;5009694;28;20030;-60
2022/02/23 08:40:07;;;;;;;43.20;5.60;;;;;;;11.79;100.00;98976.19;5010792;28;20033;-61
2022/02/23 08:42:32;;;;;;;52.47;8.68;;;;;;;11.70;100.00;98986.94;5011376;28;20120;-58
2022/02/23 08:44:57;;;;;;;35.67;5.40;;;;;;;11.41;100.00;98985.16;5009785;28;20207;-59
2022/02/23 08:47:25;;;;;;;28.92;4.70;;;;;;;11.24;100.00;98989.09;5008832;28;20038;-58
2022/02/23 08:49:52;;;;;;;40.63;5.20;;;;;;;10.81;100.00;99000.72;5009297;28;20025;-58
2022/02/23 08:52:17;;;;;;;36.75;4.90;;;;;;;10.70;100.00;98997.53;5011179;28;20149;-58
2022/02/23 08:54:43;;;;;;;40.08;5.28;;;;;;;10.52;100.00;98999.69;5008866;28;20109;-61
2022/02/23 08:57:09;;;;;;;41.60;5.75;;;;;;;10.37;100.00;99010.50;5010617;28;20516;-61
2022/02/23 08:59:35;;;;;;;47.00;5.57;;;;;;;10.49;100.00;99007.59;5009433;28;20025;-58
2022/02/23 09:02:00;;;;;;;49.80;6.00;;;;;;;10.31;100.00;99011.53;5009501;28;20051;-59
2022/02/23 09:04:26;;;;;;;45.35;5.85;;;;;;;10.51;100.00;99011.03;5009815;28;20434;-59
2022/02/23 09:06:52;;;;;;;44.75;5.50;;;;;;;10.13;100.00;99022.34;5007063;28;20136;-59
2022/02/23 09:09:18;;;;;;;57.25;7.43;;;;;;;10.36;100.00;99019.22;5009424;28;20380;-61
2022/02/23 09:11:44;;;;;;;44.78;5.93;;;;;;;9.77;100.00;99025.72;5010652;28;20075;-60
2022/02/23 09:14:11;;;;;;;60.63;6.22;;;;;;;10.08;100.00;99022.44;5010225;28;20025;-62
2022/02/23 09:16:37;;;;;;;33.53;4.82;;;;;;;10.39;100.00;99024.38;5006878;28;20068;-63
2022/02/23 09:19:03;;;;;;;39.97;5.50;;;;;;;10.07;100.00;99023.31;5008868;28;20034;-60
2022/02/23 09:21:28;;;;;;;40.65;5.10;;;;;;;10.77;100.00;99022.56;5008039;28;20044;-63
2022/02/23 09:23:54;;;;;;;36.50;4.85;;;;;;;10.58;100.00;99019.56;5008548;28;20026;-61
2022/02/23 09:26:20;;;;;;;32.92;5.05;;;;;;;11.04;100.00;99022.75;5007589;28;20052;-61
2022/02/23 09:28:46;;;;;;;39.53;5.25;;;;;;;13.01;100.00;99019.38;5009572;28;20026;-59
2022/02/23 09:31:12;;;;;;;32.38;4.53;;;;;;;13.10;100.00;99021.69;5007522;28;20310;-59
2022/02/23 09:33:37;;;;;;;47.17;6.22;;;;;;;12.80;100.00;99024.47;5010427;28;20056;-60
2022/02/23 09:36:04;;;;;;;39.20;5.35;;;;;;;12.45;100.00;99018.63;5006680;28;20173;-60
2022/02/23 09:38:30;;;;;;;39.17;5.60;;;;;;;11.62;100.00;99028.13;5010010;28;20060;-62
2022/02/23 09:40:57;;;;;;;41.15;5.57;;;;;;;11.70;100.00;99033.97;5009487;28;20080;-61
2022/02/23 09:43:23;;;;;;;45.47;5.93;;;;;;;12.20;100.00;99033.38;5008416;28;20033;-61
2022/02/23 09:45:54;;;;;;;45.33;5.78;;;;;;;12.21;100.00;99045.56;5006118;28;20041;-62
2022/02/23 09:48:25;;;;;;;56.45;6.07;;;;;;;12.10;100.00;99038.06;5010908;28;20028;-62
2022/02/23 09:50:51;;;;;;;52.15;5.95;;;;;;;11.70;100.00;99040.06;5008654;28;20038;-60
2022/02/23 09:53:18;;;;;;;45.13;5.45;;;;;;;11.69;100.00;99043.59;5010156;28;20398;-60
2022/02/23 09:55:44;;;;;;;48.85;5.45;;;;;;;12.98;100.00;99038.69;5008363;28;20559;-62
2022/02/23 09:58:09;;;;;;;54.15;5.97;;;;;;;12.56;100.00;99038.38;5010203;28;20487;-59
2022/02/23 10:00:35;;;;;;;39.70;5.03;;;;;;;12.44;100.00;99040.47;5010156;28;20068;-62
2022/02/23 10:03:00;;;;;;;40.63;4.93;;;;;;;12.25;100.00;99039.34;5008523;28;20033;-60
2022/02/23 10:05:26;;;;;;;41.90;5.05;;;;;;;10.89;100.00;99037.91;5009582;28;20046;-59
2022/02/23 10:08:03;;;;;;;36.75;4.97;;;;;;;11.55;100.00;99030.06;5009155;28;20029;-61
2022/02/23 10:10:34;;;;;;;37.00;5.00;;;;;;;12.10;100.00;99033.69;5009601;28;20127;-60
2022/02/23 10:13:03;;;;;;;60.80;6.10;;;;;;;11.62;100.00;99026.38;5008345;28;20048;-60
2022/02/23 10:15:30;;;;;;;46.83;5.47;;;;;;;11.80;100.00;99030.22;5007717;28;20160;-61
2022/02/23 10:17:55;;;;;;;53.20;5.72;;;;;;;11.45;100.00;99029.47;5009393;28;20064;-61
2022/02/23 10:20:24;;;;;;;53.50;5.95;;;;;;;12.10;100.00;99028.44;5007941;28;20030;-59
2022/02/23 10:22:50;;;;;;;41.65;4.78;;;;;;;14.45;100.00;99021.88;5009664;28;20030;-60
2022/02/23 10:25:23;;;;;;;41.55;5.20;;;;;;;14.11;88.52;99016.28;5009579;28;20026;-59
2022/02/23 10:27:49;;;;;;;36.28;4.60;;;;;;;15.80;78.40;99019.66;5009997;28;20026;-59
2022/02/23 10:30:27;;;;;;;42.10;4.90;;;;;;;15.73;87.63;99026.09;5008716;28;20021;-59
2022/02/23 10:32:54;;;;;;;40.95;4.75;;;;;;;14.34;90.19;99024.09;5008656;28;20446;-60
2022/02/23 10:35:28;;;;;;;55.70;5.53;;;;;;;13.82;82.84;99028.72;5006687;28;20048;-58
2022/02/23 10:37:54;;;;;;;52.42;5.82;;;;;;;12.83;88.34;99029.59;5010623;28;20033;-62
2022/02/23 10:40:19;;;;;;;50.13;5.45;;;;;;;13.78;90.73;99027.97;5011796;28;20029;-59
2022/02/23 10:42:45;;;;;;;54.30;5.65;;;;;;;15.41;72.95;99028.41;5011741;28;20033;-60
2022/02/23 10:45:17;;;;;;;51.03;5.53;;;;;;;15.01;67.24;99024.88;5012502;28;20014;-60
2022/02/23 10:47:43;;;;;;;40.85;4.75;;;;;;;16.89;67.61;99026.72;5013268;28;20116;-62
2022/02/23 10:50:14;;;;;;;34.90;4.55;;;;;;;16.19;65.50;99026.59;5011677;28;20415;-61
2022/02/23 10:52:43;;;;;;;45.60;5.55;;;;;;;16.64;60.59;99016.56;5012847;28;20120;-62
2022/02/23 10:55:17;;;;;;;48.50;5.45;;;;;;;15.54;77.53;99021.66;5013812;28;20699;-61
2022/02/23 10:57:52;;;;;;;49.13;5.57;;;;;;;16.37;74.06;99024.88;5013024;28;20028;-60
2022/02/23 11:00:25;;;;;;;41.25;4.63;;;;;;;14.29;70.93;99025.19;5011190;28;20036;-63
2022/02/23 11:02:52;;;;;;;55.75;5.97;;;;;;;15.93;74.94;99022.56;5015606;28;20020;-61
2022/02/23 11:05:23;;;;;;;33.50;4.82;;;;;;;16.83;63.21;99019.16;5013335;28;20025;-61
2022/02/23 11:07:49;;;;;;;20.30;3.55;;;;;;;17.07;62.44;99020.53;5011804;28;20893;-61
2022/02/23 11:10:15;;;;;;;37.78;4.95;;;;;;;16.34;66.52;99020.63;5011233;28;20018;-59
2022/02/23 11:12:45;;;;;;;40.95;5.32;;;;;;;15.15;60.69;99011.16;5012082;28;20037;-61
2022/02/23 11:15:16;;;;;;;42.55;5.35;;;;;;;15.51;63.19;99008.66;5010508;28;20029;-60
2022/02/23 11:17:46;;;;;;;40.90;5.00;;;;;;;16.82;79.00;99006.84;5010657;28;20099;-59
2022/02/23 11:20:23;;;;;;;46.63;4.90;;;;;;;18.18;100.00;99005.84;5010897;28;20037;-63
2022/02/23 11:22:53;;;;;;;50.05;5.57;;;;;;;17.44;64.68;99004.56;5012460;28;20117;-60